Howard Blank — WDF2314 — position and weather

sailwx.info

Track history (hours):
 
Tides and Currents Weather Stations Pressure Air Temp Water Temp Dewpoint Dewpoint Depression Visibility Wind Speed Wind Dir Waves Ship Positions

Howard Blank

Owner: Florida Marine Transporters, Inc., Mandeville, LA. More information available from US FCC via Universal Licensing System and Coast Guard Vessel Documentation Center.

Last reported at 2018-Apr-25 14:00 UTC. Time now 2018-Apr-25 14:09 UTC.
Position N 28°57' W 095°20'.

Length 27 m; draft 2.9 m.

Type: Towing. MMSI: 367427260.

Date/timePositionNaut miles runAvg speedWind from/ knotsBaromVisibWave heightAir tempDewpointWater temp
2018-Apr-25 14:00N 28°57' W 095°20'0 0.0
2018-Apr-25 13:29N 28°57' W 095°20'0 0.0
2018-Apr-25 13:00N 28°57' W 095°20'0 0.2
2018-Apr-25 12:30N 28°57' W 095°20'0 0.7
2018-Apr-25 11:53N 28°56' W 095°19'1 2.7
2018-Apr-25 11:30N 28°56' W 095°20'2 4.7
2018-Apr-25 11:00N 28°54' W 095°22'2 3.4
2018-Apr-25 10:30N 28°54' W 095°24'0 0.8
2018-Apr-25 10:00N 28°54' W 095°24'0 0.5
2018-Apr-25 09:30N 28°54' W 095°24'2 4.0
2018-Apr-25 09:00N 28°52' W 095°26'2 4.4
2018-Apr-25 08:30N 28°52' W 095°29'2 4.5
2018-Apr-25 08:00N 28°51' W 095°31'6 3.7
2018-Apr-25 06:27N 28°47' W 095°36'2 4.6
2018-Apr-25 05:59N 28°46' W 095°38'  
2018-Apr-22 21:01N 29°34' W 094°27'0 5.9
2018-Apr-22 20:57N 29°34' W 094°26'2 3.6
2018-Apr-22 20:28N 29°35' W 094°25'2 4.3
2018-Apr-22 20:00N 29°36' W 094°23'3 5.5
2018-Apr-22 19:30N 29°37' W 094°20'3 5.4
2018-Apr-22 19:00N 29°38' W 094°17'3 5.4
2018-Apr-22 18:30N 29°40' W 094°15'3 5.8
2018-Apr-22 18:00N 29°41' W 094°12'3 5.8
2018-Apr-22 17:30N 29°42' W 094°08'3 6.2
2018-Apr-22 17:00N 29°44' W 094°06'3 6.0
2018-Apr-22 16:30N 29°46' W 094°03'3 6.2
2018-Apr-22 16:00N 29°48' W 094°00'2 4.5
2018-Apr-22 15:30N 29°49' W 093°58'3 6.5
2018-Apr-22 15:00N 29°52' W 093°56'4 7.6
2018-Apr-22 14:30N 29°55' W 093°53'3 6.9
2018-Apr-22 14:00N 29°58' W 093°51'3 6.1
2018-Apr-22 13:30N 29°59' W 093°48'4 7.6
2018-Apr-22 13:00N 30°01' W 093°44'3 6.2
2018-Apr-22 12:30N 30°03' W 093°42'3 6.1
2018-Apr-22 12:00N 30°04' W 093°38'3 5.5
2018-Apr-22 11:30N 30°04' W 093°35'2 4.4
2018-Apr-22 10:59N 30°04' W 093°33'0 0.2
2018-Apr-22 10:30N 30°04' W 093°33'0 0.0
2018-Apr-22 10:00N 30°04' W 093°33'0 0.5
2018-Apr-22 09:30N 30°04' W 093°32'1 2.8
2018-Apr-22 09:00N 30°04' W 093°31'1 1.5
2018-Apr-22 08:30N 30°04' W 093°30'1 1.1
2018-Apr-22 08:00N 30°04' W 093°29'0 0.2
2018-Apr-22 07:30N 30°04' W 093°29'2 3.9
2018-Apr-22 07:00N 30°04' W 093°27'2 3.3
2018-Apr-22 06:28N 30°04' W 093°25'0 0.0
2018-Apr-22 06:00N 30°04' W 093°25'0 0.0
2018-Apr-22 05:30N 30°04' W 093°25'1 1.9
2018-Apr-22 05:00N 30°04' W 093°24'2 5.0
2018-Apr-22 04:30N 30°04' W 093°21'2 4.8
2018-Apr-22 04:00N 30°06' W 093°20'2 4.0
2018-Apr-22 03:30N 30°08' W 093°19'0 0.1
2018-Apr-22 03:00N 30°08' W 093°19'0 0.0
2018-Apr-22 02:30N 30°08' W 093°19'0 0.0
2018-Apr-22 02:00N 30°08' W 093°19'0 0.0
2018-Apr-22 01:30N 30°08' W 093°19'0 0.0
2018-Apr-22 01:00N 30°08' W 093°19'0 0.0
2018-Apr-22 00:30N 30°08' W 093°19'0 0.0
2018-Apr-22 00:00N 30°08' W 093°19'0 0.0
2018-Apr-21 23:30N 30°08' W 093°19'0 0.0
2018-Apr-21 23:00N 30°08' W 093°19'0 0.0
2018-Apr-21 22:30N 30°08' W 093°19'0 0.0
2018-Apr-21 22:00N 30°08' W 093°19'0 0.0
2018-Apr-21 21:30N 30°08' W 093°19'0 0.0
2018-Apr-21 21:00N 30°08' W 093°19'0 0.0
2018-Apr-21 20:30N 30°08' W 093°19'0 0.0
2018-Apr-21 20:00N 30°08' W 093°19'0 0.0
2018-Apr-21 19:30N 30°08' W 093°19'0 0.0
2018-Apr-21 18:58N 30°08' W 093°19'0 0.0
2018-Apr-21 18:30N 30°08' W 093°19'0 0.0
2018-Apr-21 18:00N 30°08' W 093°19'0 0.0
2018-Apr-21 17:29N 30°08' W 093°19'0 0.0
2018-Apr-21 17:00N 30°08' W 093°19'0 0.0
2018-Apr-21 16:30N 30°08' W 093°19'0 0.0
2018-Apr-21 16:00N 30°08' W 093°19'0 0.0
2018-Apr-21 15:30N 30°08' W 093°19'0 0.0
2018-Apr-21 15:00N 30°08' W 093°19'0 0.0
2018-Apr-21 14:30N 30°08' W 093°19'0 0.0
2018-Apr-21 14:00N 30°08' W 093°19'0 0.0
2018-Apr-21 13:30N 30°08' W 093°19'0 0.0
2018-Apr-21 13:00N 30°08' W 093°19'1 1.2
2018-Apr-21 12:30N 30°08' W 093°20'2 3.1
2018-Apr-21 12:00N 30°06' W 093°20'1 1.1
2018-Apr-21 11:31N 30°06' W 093°19'1 2.9
2018-Apr-21 11:00N 30°05' W 093°18'1 1.1
2018-Apr-21 10:30N 30°05' W 093°17'1 1.4
2018-Apr-21 10:00N 30°04' W 093°16'0 0.0
2018-Apr-21 09:30N 30°04' W 093°16'0 0.0
2018-Apr-21 09:00N 30°04' W 093°16'0 0.0
2018-Apr-21 08:30N 30°04' W 093°16'0 0.0
2018-Apr-21 08:00N 30°04' W 093°16'0 0.0
2018-Apr-21 07:30N 30°04' W 093°16'0 0.2
2018-Apr-21 07:00N 30°04' W 093°16'2 3.6
2018-Apr-21 06:30N 30°03' W 093°16'2 4.1
2018-Apr-21 06:00N 30°01' W 093°14'2 3.9
2018-Apr-21 05:30N 29°60' W 093°13'1 2.0
2018-Apr-21 05:00N 29°59' W 093°12'2 4.6
2018-Apr-21 04:30N 29°57' W 093°10'2 4.5
2018-Apr-21 04:00N 29°56' W 093°08'2 4.7
2018-Apr-21 03:30N 29°56' W 093°05'2 4.7
2018-Apr-21 03:00N 29°56' W 093°03'3 4.9
2018-Apr-21 02:28N 29°56' W 092°60'3 4.6
2018-Apr-21 01:55N 29°56' W 092°57'31 4.6
2018-Apr-20 19:15N 29°51' W 092°22'2 4.7
2018-Apr-20 18:50N 29°50' W 092°20'1 4.3
2018-Apr-20 18:30N 29°50' W 092°18'2 4.7
2018-Apr-20 18:00N 29°48' W 092°16'3 5.1
2018-Apr-20 17:30N 29°47' W 092°13'1 1.9
2018-Apr-20 17:00N 29°47' W 092°12'2 3.5
2018-Apr-20 16:31N 29°47' W 092°10'3 5.0
2018-Apr-20 16:00N 29°47' W 092°08'2 4.6
2018-Apr-20 15:30N 29°48' W 092°05'2 4.5
2018-Apr-20 14:59N 29°49' W 092°03'2 4.8
2018-Apr-20 14:30N 29°50' W 092°00'2 4.5
2018-Apr-20 13:59N 29°50' W 091°57'  
2018-Apr-16 03:26N 29°56' W 093°02'3 5.9
2018-Apr-16 02:58N 29°56' W 093°05'3 5.8
2018-Apr-16 02:30N 29°56' W 093°08'3 5.6
2018-Apr-16 02:00N 29°57' W 093°11'3 6.3
2018-Apr-16 01:30N 29°60' W 093°13'2 4.7
2018-Apr-16 01:00N 30°02' W 093°15'2 4.4
2018-Apr-16 00:30N 30°04' W 093°16'2 4.7
2018-Apr-16 00:00N 30°05' W 093°18'1 1.5
2018-Apr-15 23:30N 30°06' W 093°18'0 0.1
2018-Apr-15 23:00N 30°06' W 093°18'0 0.0
2018-Apr-15 22:30N 30°06' W 093°18'0 0.0
2018-Apr-15 22:00N 30°06' W 093°18'0 0.0
2018-Apr-15 21:30N 30°06' W 093°18'0 0.0
2018-Apr-15 21:00N 30°06' W 093°18'0 0.0
2018-Apr-15 20:30N 30°06' W 093°18'0 0.1
2018-Apr-15 20:00N 30°06' W 093°18'0 0.1
2018-Apr-15 19:30N 30°06' W 093°18'0 0.0
2018-Apr-15 19:00N 30°06' W 093°18'0 0.0
2018-Apr-15 18:29N 30°06' W 093°18'0 0.0
2018-Apr-15 18:00N 30°06' W 093°18'0 0.2
2018-Apr-15 17:30N 30°06' W 093°18'0 0.1
2018-Apr-15 17:00N 30°06' W 093°18'0 0.0
2018-Apr-15 16:30N 30°06' W 093°18'0 0.0
2018-Apr-15 16:00N 30°06' W 093°18'0 0.0
2018-Apr-15 15:30N 30°06' W 093°18'0 0.2
2018-Apr-15 15:00N 30°06' W 093°18'0 0.0
2018-Apr-15 14:30N 30°06' W 093°18'1 2.7
2018-Apr-15 14:00N 30°05' W 093°20'  
Track history (hours):
 
Tides and Currents Weather Stations Pressure Air Temp Water Temp Dewpoint Dewpoint Depression Visibility Wind Speed Wind Dir Waves Ship Positions

Howard Blank

Owner: Florida Marine Transporters, Inc., Mandeville, LA. More information available from US FCC via Universal Licensing System and Coast Guard Vessel Documentation Center.

Last reported at 2018-Apr-25 14:00 UTC. Time now 2018-Apr-25 14:09 UTC.
Position N 28°57' W 095°20'.

Length 27 m; draft 2.9 m.

Type: Towing. MMSI: 367427260.

Date/timePositionNaut miles runAvg speedWind from/ knotsBaromVisibWave heightAir tempDewpointWater temp
2018-Apr-25 14:00N 28°57' W 095°20'0 0.0
2018-Apr-25 13:29N 28°57' W 095°20'0 0.0
2018-Apr-25 13:00N 28°57' W 095°20'0 0.2
2018-Apr-25 12:30N 28°57' W 095°20'0 0.7
2018-Apr-25 11:53N 28°56' W 095°19'1 2.7
2018-Apr-25 11:30N 28°56' W 095°20'2 4.7
2018-Apr-25 11:00N 28°54' W 095°22'2 3.4
2018-Apr-25 10:30N 28°54' W 095°24'0 0.8
2018-Apr-25 10:00N 28°54' W 095°24'0 0.5
2018-Apr-25 09:30N 28°54' W 095°24'2 4.0
2018-Apr-25 09:00N 28°52' W 095°26'2 4.4
2018-Apr-25 08:30N 28°52' W 095°29'2 4.5
2018-Apr-25 08:00N 28°51' W 095°31'6 3.7
2018-Apr-25 06:27N 28°47' W 095°36'2 4.6
2018-Apr-25 05:59N 28°46' W 095°38'  
2018-Apr-22 21:01N 29°34' W 094°27'0 5.9
2018-Apr-22 20:57N 29°34' W 094°26'2 3.6
2018-Apr-22 20:28N 29°35' W 094°25'2 4.3
2018-Apr-22 20:00N 29°36' W 094°23'3 5.5
2018-Apr-22 19:30N 29°37' W 094°20'3 5.4
2018-Apr-22 19:00N 29°38' W 094°17'3 5.4
2018-Apr-22 18:30N 29°40' W 094°15'3 5.8
2018-Apr-22 18:00N 29°41' W 094°12'3 5.8
2018-Apr-22 17:30N 29°42' W 094°08'3 6.2
2018-Apr-22 17:00N 29°44' W 094°06'3 6.0
2018-Apr-22 16:30N 29°46' W 094°03'3 6.2
2018-Apr-22 16:00N 29°48' W 094°00'2 4.5
2018-Apr-22 15:30N 29°49' W 093°58'3 6.5
2018-Apr-22 15:00N 29°52' W 093°56'4 7.6
2018-Apr-22 14:30N 29°55' W 093°53'3 6.9
2018-Apr-22 14:00N 29°58' W 093°51'3 6.1
2018-Apr-22 13:30N 29°59' W 093°48'4 7.6
2018-Apr-22 13:00N 30°01' W 093°44'3 6.2
2018-Apr-22 12:30N 30°03' W 093°42'3 6.1
2018-Apr-22 12:00N 30°04' W 093°38'3 5.5
2018-Apr-22 11:30N 30°04' W 093°35'2 4.4
2018-Apr-22 10:59N 30°04' W 093°33'0 0.2
2018-Apr-22 10:30N 30°04' W 093°33'0 0.0
2018-Apr-22 10:00N 30°04' W 093°33'0 0.5
2018-Apr-22 09:30N 30°04' W 093°32'1 2.8
2018-Apr-22 09:00N 30°04' W 093°31'1 1.5
2018-Apr-22 08:30N 30°04' W 093°30'1 1.1
2018-Apr-22 08:00N 30°04' W 093°29'0 0.2
2018-Apr-22 07:30N 30°04' W 093°29'2 3.9
2018-Apr-22 07:00N 30°04' W 093°27'2 3.3
2018-Apr-22 06:28N 30°04' W 093°25'0 0.0
2018-Apr-22 06:00N 30°04' W 093°25'0 0.0
2018-Apr-22 05:30N 30°04' W 093°25'1 1.9
2018-Apr-22 05:00N 30°04' W 093°24'2 5.0
2018-Apr-22 04:30N 30°04' W 093°21'2 4.8
2018-Apr-22 04:00N 30°06' W 093°20'2 4.0
2018-Apr-22 03:30N 30°08' W 093°19'0 0.1
2018-Apr-22 03:00N 30°08' W 093°19'0 0.0
2018-Apr-22 02:30N 30°08' W 093°19'0 0.0
2018-Apr-22 02:00N 30°08' W 093°19'0 0.0
2018-Apr-22 01:30N 30°08' W 093°19'0 0.0
2018-Apr-22 01:00N 30°08' W 093°19'0 0.0
2018-Apr-22 00:30N 30°08' W 093°19'0 0.0
2018-Apr-22 00:00N 30°08' W 093°19'0 0.0
2018-Apr-21 23:30N 30°08' W 093°19'0 0.0
2018-Apr-21 23:00N 30°08' W 093°19'0 0.0
2018-Apr-21 22:30N 30°08' W 093°19'0 0.0
2018-Apr-21 22:00N 30°08' W 093°19'0 0.0
2018-Apr-21 21:30N 30°08' W 093°19'0 0.0
2018-Apr-21 21:00N 30°08' W 093°19'0 0.0
2018-Apr-21 20:30N 30°08' W 093°19'0 0.0
2018-Apr-21 20:00N 30°08' W 093°19'0 0.0
2018-Apr-21 19:30N 30°08' W 093°19'0 0.0
2018-Apr-21 18:58N 30°08' W 093°19'0 0.0
2018-Apr-21 18:30N 30°08' W 093°19'0 0.0
2018-Apr-21 18:00N 30°08' W 093°19'0 0.0
2018-Apr-21 17:29N 30°08' W 093°19'0 0.0
2018-Apr-21 17:00N 30°08' W 093°19'0 0.0
2018-Apr-21 16:30N 30°08' W 093°19'0 0.0
2018-Apr-21 16:00N 30°08' W 093°19'0 0.0
2018-Apr-21 15:30N 30°08' W 093°19'0 0.0
2018-Apr-21 15:00N 30°08' W 093°19'0 0.0
2018-Apr-21 14:30N 30°08' W 093°19'0 0.0
2018-Apr-21 14:00N 30°08' W 093°19'0 0.0
2018-Apr-21 13:30N 30°08' W 093°19'0 0.0
2018-Apr-21 13:00N 30°08' W 093°19'1 1.2
2018-Apr-21 12:30N 30°08' W 093°20'2 3.1
2018-Apr-21 12:00N 30°06' W 093°20'1 1.1
2018-Apr-21 11:31N 30°06' W 093°19'1 2.9
2018-Apr-21 11:00N 30°05' W 093°18'1 1.1
2018-Apr-21 10:30N 30°05' W 093°17'1 1.4
2018-Apr-21 10:00N 30°04' W 093°16'0 0.0
2018-Apr-21 09:30N 30°04' W 093°16'0 0.0
2018-Apr-21 09:00N 30°04' W 093°16'0 0.0
2018-Apr-21 08:30N 30°04' W 093°16'0 0.0
2018-Apr-21 08:00N 30°04' W 093°16'0 0.0
2018-Apr-21 07:30N 30°04' W 093°16'0 0.2
2018-Apr-21 07:00N 30°04' W 093°16'2 3.6
2018-Apr-21 06:30N 30°03' W 093°16'2 4.1
2018-Apr-21 06:00N 30°01' W 093°14'2 3.9
2018-Apr-21 05:30N 29°60' W 093°13'1 2.0
2018-Apr-21 05:00N 29°59' W 093°12'2 4.6
2018-Apr-21 04:30N 29°57' W 093°10'2 4.5
2018-Apr-21 04:00N 29°56' W 093°08'2 4.7
2018-Apr-21 03:30N 29°56' W 093°05'2 4.7
2018-Apr-21 03:00N 29°56' W 093°03'3 4.9
2018-Apr-21 02:28N 29°56' W 092°60'3 4.6
2018-Apr-21 01:55N 29°56' W 092°57'31 4.6
2018-Apr-20 19:15N 29°51' W 092°22'2 4.7
2018-Apr-20 18:50N 29°50' W 092°20'1 4.3
2018-Apr-20 18:30N 29°50' W 092°18'2 4.7
2018-Apr-20 18:00N 29°48' W 092°16'3 5.1
2018-Apr-20 17:30N 29°47' W 092°13'1 1.9
2018-Apr-20 17:00N 29°47' W 092°12'2 3.5
2018-Apr-20 16:31N 29°47' W 092°10'3 5.0
2018-Apr-20 16:00N 29°47' W 092°08'2 4.6
2018-Apr-20 15:30N 29°48' W 092°05'2 4.5
2018-Apr-20 14:59N 29°49' W 092°03'2 4.8
2018-Apr-20 14:30N 29°50' W 092°00'2 4.5
2018-Apr-20 13:59N 29°50' W 091°57'  
2018-Apr-16 03:26N 29°56' W 093°02'3 5.9
2018-Apr-16 02:58N 29°56' W 093°05'3 5.8
2018-Apr-16 02:30N 29°56' W 093°08'3 5.6
2018-Apr-16 02:00N 29°57' W 093°11'3 6.3
2018-Apr-16 01:30N 29°60' W 093°13'2 4.7
2018-Apr-16 01:00N 30°02' W 093°15'2 4.4
2018-Apr-16 00:30N 30°04' W 093°16'2 4.7
2018-Apr-16 00:00N 30°05' W 093°18'1 1.5
2018-Apr-15 23:30N 30°06' W 093°18'0 0.1
2018-Apr-15 23:00N 30°06' W 093°18'0 0.0
2018-Apr-15 22:30N 30°06' W 093°18'0 0.0
2018-Apr-15 22:00N 30°06' W 093°18'0 0.0
2018-Apr-15 21:30N 30°06' W 093°18'0 0.0
2018-Apr-15 21:00N 30°06' W 093°18'0 0.0
2018-Apr-15 20:30N 30°06' W 093°18'0 0.1
2018-Apr-15 20:00N 30°06' W 093°18'0 0.1
2018-Apr-15 19:30N 30°06' W 093°18'0 0.0
2018-Apr-15 19:00N 30°06' W 093°18'0 0.0
2018-Apr-15 18:29N 30°06' W 093°18'0 0.0
2018-Apr-15 18:00N 30°06' W 093°18'0 0.2
2018-Apr-15 17:30N 30°06' W 093°18'0 0.1
2018-Apr-15 17:00N 30°06' W 093°18'0 0.0
2018-Apr-15 16:30N 30°06' W 093°18'0 0.0
2018-Apr-15 16:00N 30°06' W 093°18'0 0.0
2018-Apr-15 15:30N 30°06' W 093°18'0 0.2
2018-Apr-15 15:00N 30°06' W 093°18'0 0.0
2018-Apr-15 14:30N 30°06' W 093°18'1 2.7
2018-Apr-15 14:00N 30°05' W 093°20'  

Dump ship's entire track history